sensor_id;sensor_type;location;lat;lon;timestamp;P1;durP1;ratioP1;P2;durP2;ratioP2
35126;SDS011;21300;52.006;5.798;2023-04-30T00:00:48;8.45;;;4.55;;
35126;SDS011;21300;52.006;5.798;2023-04-30T00:03:14;7.63;;;5.10;;
35126;SDS011;21300;52.006;5.798;2023-04-30T00:05:39;7.10;;;4.95;;
35126;SDS011;21300;52.006;5.798;2023-04-30T00:08:05;7.70;;;4.35;;
35126;SDS011;21300;52.006;5.798;2023-04-30T00:10:30;8.13;;;5.00;;
35126;SDS011;21300;52.006;5.798;2023-04-30T00:12:57;7.35;;;4.68;;
35126;SDS011;21300;52.006;5.798;2023-04-30T00:15:22;9.73;;;4.40;;
35126;SDS011;21300;52.006;5.798;2023-04-30T00:17:48;7.10;;;4.88;;
35126;SDS011;21300;52.006;5.798;2023-04-30T00:20:14;7.03;;;4.80;;
35126;SDS011;21300;52.006;5.798;2023-04-30T00:22:39;6.85;;;4.50;;
35126;SDS011;21300;52.006;5.798;2023-04-30T00:25:05;8.73;;;4.72;;
35126;SDS011;21300;52.006;5.798;2023-04-30T00:27:31;6.70;;;4.78;;
35126;SDS011;21300;52.006;5.798;2023-04-30T00:29:57;7.28;;;5.00;;
35126;SDS011;21300;52.006;5.798;2023-04-30T00:32:22;7.75;;;5.50;;
35126;SDS011;21300;52.006;5.798;2023-04-30T00:34:48;10.00;;;5.40;;
35126;SDS011;21300;52.006;5.798;2023-04-30T00:37:13;10.10;;;5.80;;
35126;SDS011;21300;52.006;5.798;2023-04-30T00:39:39;7.72;;;5.47;;
35126;SDS011;21300;52.006;5.798;2023-04-30T00:42:05;9.73;;;5.90;;
35126;SDS011;21300;52.006;5.798;2023-04-30T00:44:31;11.55;;;5.90;;
35126;SDS011;21300;52.006;5.798;2023-04-30T00:46:56;7.65;;;5.32;;
35126;SDS011;21300;52.006;5.798;2023-04-30T00:49:22;8.98;;;6.03;;
35126;SDS011;21300;52.006;5.798;2023-04-30T00:51:47;9.85;;;6.05;;
35126;SDS011;21300;52.006;5.798;2023-04-30T00:54:15;7.95;;;5.72;;
35126;SDS011;21300;52.006;5.798;2023-04-30T00:56:41;8.15;;;6.18;;
35126;SDS011;21300;52.006;5.798;2023-04-30T00:59:07;8.93;;;5.63;;
35126;SDS011;21300;52.006;5.798;2023-04-30T01:01:33;8.75;;;6.05;;
35126;SDS011;21300;52.006;5.798;2023-04-30T01:03:58;11.35;;;6.35;;
35126;SDS011;21300;52.006;5.798;2023-04-30T01:06:25;8.75;;;6.47;;
35126;SDS011;21300;52.006;5.798;2023-04-30T01:08:50;8.10;;;5.80;;
35126;SDS011;21300;52.006;5.798;2023-04-30T01:14:07;8.02;;;5.35;;
35126;SDS011;21300;52.006;5.798;2023-04-30T01:16:47;9.43;;;5.63;;
35126;SDS011;21300;52.006;5.798;2023-04-30T01:19:35;8.23;;;5.85;;
35126;SDS011;21300;52.006;5.798;2023-04-30T01:22:09;7.55;;;5.57;;
35126;SDS011;21300;52.006;5.798;2023-04-30T01:27:22;10.73;;;6.03;;
35126;SDS011;21300;52.006;5.798;2023-04-30T01:30:07;7.07;;;5.38;;
35126;SDS011;21300;52.006;5.798;2023-04-30T01:32:33;10.55;;;5.97;;
35126;SDS011;21300;52.006;5.798;2023-04-30T01:34:59;9.20;;;5.82;;
35126;SDS011;21300;52.006;5.798;2023-04-30T01:37:32;8.57;;;5.63;;
35126;SDS011;21300;52.006;5.798;2023-04-30T01:40:20;9.30;;;5.65;;
35126;SDS011;21300;52.006;5.798;2023-04-30T01:42:52;9.30;;;5.63;;
35126;SDS011;21300;52.006;5.798;2023-04-30T01:45:48;7.68;;;5.13;;
35126;SDS011;21300;52.006;5.798;2023-04-30T01:53:58;7.85;;;4.80;;
35126;SDS011;21300;52.006;5.798;2023-04-30T01:56:41;7.57;;;5.50;;
35126;SDS011;21300;52.006;5.798;2023-04-30T01:59:13;8.32;;;5.07;;
35126;SDS011;21300;52.006;5.798;2023-04-30T02:01:40;7.95;;;5.40;;
35126;SDS011;21300;52.006;5.798;2023-04-30T02:04:06;7.35;;;5.15;;
35126;SDS011;21300;52.006;5.798;2023-04-30T02:06:31;8.23;;;5.28;;
35126;SDS011;21300;52.006;5.798;2023-04-30T02:08:57;8.25;;;5.40;;
35126;SDS011;21300;52.006;5.798;2023-04-30T02:11:30;8.25;;;5.70;;
35126;SDS011;21300;52.006;5.798;2023-04-30T02:13:55;9.60;;;6.45;;
35126;SDS011;21300;52.006;5.798;2023-04-30T02:16:21;11.93;;;6.15;;
35126;SDS011;21300;52.006;5.798;2023-04-30T02:18:47;9.02;;;6.25;;
35126;SDS011;21300;52.006;5.798;2023-04-30T02:21:13;9.00;;;5.70;;
35126;SDS011;21300;52.006;5.798;2023-04-30T02:23:38;8.90;;;5.75;;
35126;SDS011;21300;52.006;5.798;2023-04-30T02:26:04;13.27;;;6.13;;
35126;SDS011;21300;52.006;5.798;2023-04-30T02:28:30;9.40;;;5.82;;
35126;SDS011;21300;52.006;5.798;2023-04-30T02:30:56;8.20;;;5.20;;
35126;SDS011;21300;52.006;5.798;2023-04-30T02:33:21;9.55;;;6.05;;
35126;SDS011;21300;52.006;5.798;2023-04-30T02:35:47;9.95;;;6.20;;
35126;SDS011;21300;52.006;5.798;2023-04-30T02:38:13;7.82;;;5.72;;
35126;SDS011;21300;52.006;5.798;2023-04-30T02:40:40;10.50;;;6.20;;
35126;SDS011;21300;52.006;5.798;2023-04-30T02:43:06;10.18;;;6.03;;
35126;SDS011;21300;52.006;5.798;2023-04-30T02:45:32;9.90;;;5.88;;
35126;SDS011;21300;52.006;5.798;2023-04-30T02:47:58;10.45;;;6.30;;
35126;SDS011;21300;52.006;5.798;2023-04-30T02:50:23;10.68;;;5.88;;
35126;SDS011;21300;52.006;5.798;2023-04-30T02:52:49;11.57;;;5.90;;
35126;SDS011;21300;52.006;5.798;2023-04-30T02:55:14;9.52;;;5.40;;
35126;SDS011;21300;52.006;5.798;2023-04-30T02:57:40;10.30;;;5.60;;
35126;SDS011;21300;52.006;5.798;2023-04-30T03:00:06;9.48;;;6.00;;
35126;SDS011;21300;52.006;5.798;2023-04-30T03:02:32;9.02;;;6.00;;
35126;SDS011;21300;52.006;5.798;2023-04-30T03:04:57;7.53;;;5.32;;
35126;SDS011;21300;52.006;5.798;2023-04-30T03:07:23;8.95;;;6.32;;
35126;SDS011;21300;52.006;5.798;2023-04-30T03:09:49;10.98;;;5.97;;
35126;SDS011;21300;52.006;5.798;2023-04-30T03:12:14;7.45;;;4.75;;
35126;SDS011;21300;52.006;5.798;2023-04-30T03:14:40;7.20;;;5.40;;
35126;SDS011;21300;52.006;5.798;2023-04-30T03:17:06;8.90;;;5.55;;
35126;SDS011;21300;52.006;5.798;2023-04-30T03:19:31;7.32;;;5.50;;
35126;SDS011;21300;52.006;5.798;2023-04-30T03:21:57;8.02;;;5.38;;
35126;SDS011;21300;52.006;5.798;2023-04-30T03:24:23;8.23;;;5.60;;
35126;SDS011;21300;52.006;5.798;2023-04-30T03:26:51;7.97;;;5.28;;
35126;SDS011;21300;52.006;5.798;2023-04-30T03:29:17;8.52;;;5.43;;
35126;SDS011;21300;52.006;5.798;2023-04-30T03:31:42;7.03;;;5.03;;
35126;SDS011;21300;52.006;5.798;2023-04-30T03:34:08;10.48;;;6.22;;
35126;SDS011;21300;52.006;5.798;2023-04-30T03:36:34;8.13;;;5.63;;
35126;SDS011;21300;52.006;5.798;2023-04-30T03:39:00;7.35;;;5.55;;
35126;SDS011;21300;52.006;5.798;2023-04-30T03:41:26;9.15;;;5.85;;
35126;SDS011;21300;52.006;5.798;2023-04-30T03:43:51;8.70;;;5.75;;
35126;SDS011;21300;52.006;5.798;2023-04-30T03:46:17;9.70;;;5.88;;
35126;SDS011;21300;52.006;5.798;2023-04-30T03:48:42;9.13;;;5.90;;
35126;SDS011;21300;52.006;5.798;2023-04-30T03:51:09;7.78;;;5.22;;
35126;SDS011;21300;52.006;5.798;2023-04-30T03:53:34;8.45;;;5.80;;
35126;SDS011;21300;52.006;5.798;2023-04-30T03:56:00;8.73;;;6.20;;
35126;SDS011;21300;52.006;5.798;2023-04-30T03:58:26;8.13;;;5.88;;
35126;SDS011;21300;52.006;5.798;2023-04-30T04:00:52;8.52;;;5.70;;
35126;SDS011;21300;52.006;5.798;2023-04-30T04:03:18;7.10;;;5.47;;
35126;SDS011;21300;52.006;5.798;2023-04-30T04:05:44;9.77;;;5.63;;
35126;SDS011;21300;52.006;5.798;2023-04-30T04:08:10;9.23;;;5.43;;
35126;SDS011;21300;52.006;5.798;2023-04-30T04:10:35;6.18;;;5.07;;
35126;SDS011;21300;52.006;5.798;2023-04-30T04:13:02;9.68;;;5.72;;
35126;SDS011;21300;52.006;5.798;2023-04-30T04:15:27;8.55;;;5.50;;
35126;SDS011;21300;52.006;5.798;2023-04-30T04:17:53;8.80;;;5.53;;
35126;SDS011;21300;52.006;5.798;2023-04-30T04:20:18;6.78;;;5.13;;
35126;SDS011;21300;52.006;5.798;2023-04-30T04:22:44;8.43;;;5.65;;
35126;SDS011;21300;52.006;5.798;2023-04-30T04:25:10;8.23;;;5.57;;
35126;SDS011;21300;52.006;5.798;2023-04-30T04:27:35;10.32;;;6.00;;
35126;SDS011;21300;52.006;5.798;2023-04-30T04:30:02;8.30;;;5.03;;
35126;SDS011;21300;52.006;5.798;2023-04-30T04:32:28;7.70;;;5.78;;
35126;SDS011;21300;52.006;5.798;2023-04-30T04:34:54;10.10;;;5.90;;
35126;SDS011;21300;52.006;5.798;2023-04-30T04:37:21;10.27;;;5.38;;
35126;SDS011;21300;52.006;5.798;2023-04-30T04:39:47;7.32;;;5.47;;
35126;SDS011;21300;52.006;5.798;2023-04-30T04:42:14;7.15;;;5.57;;
35126;SDS011;21300;52.006;5.798;2023-04-30T04:44:41;8.02;;;5.65;;
35126;SDS011;21300;52.006;5.798;2023-04-30T04:47:07;7.82;;;5.38;;
35126;SDS011;21300;52.006;5.798;2023-04-30T04:49:34;6.50;;;4.93;;
35126;SDS011;21300;52.006;5.798;2023-04-30T04:51:59;8.23;;;5.07;;
35126;SDS011;21300;52.006;5.798;2023-04-30T04:54:26;8.88;;;5.13;;
35126;SDS011;21300;52.006;5.798;2023-04-30T04:56:51;7.35;;;4.97;;
35126;SDS011;21300;52.006;5.798;2023-04-30T04:59:17;7.25;;;5.43;;
35126;SDS011;21300;52.006;5.798;2023-04-30T05:01:43;7.40;;;5.32;;
35126;SDS011;21300;52.006;5.798;2023-04-30T05:04:08;8.07;;;5.18;;
35126;SDS011;21300;52.006;5.798;2023-04-30T05:06:34;8.27;;;5.43;;
35126;SDS011;21300;52.006;5.798;2023-04-30T05:09:00;9.20;;;5.72;;
35126;SDS011;21300;52.006;5.798;2023-04-30T05:11:26;7.93;;;5.57;;
35126;SDS011;21300;52.006;5.798;2023-04-30T05:13:51;7.80;;;5.50;;
35126;SDS011;21300;52.006;5.798;2023-04-30T05:16:17;8.90;;;5.50;;
35126;SDS011;21300;52.006;5.798;2023-04-30T05:18:42;7.25;;;5.05;;
35126;SDS011;21300;52.006;5.798;2023-04-30T05:21:08;6.90;;;5.13;;
35126;SDS011;21300;52.006;5.798;2023-04-30T05:23:33;6.53;;;5.22;;
35126;SDS011;21300;52.006;5.798;2023-04-30T05:25:59;7.80;;;5.43;;
35126;SDS011;21300;52.006;5.798;2023-04-30T05:28:25;8.43;;;5.38;;
35126;SDS011;21300;52.006;5.798;2023-04-30T05:30:50;7.97;;;5.57;;
35126;SDS011;21300;52.006;5.798;2023-04-30T05:33:16;8.27;;;5.55;;
35126;SDS011;21300;52.006;5.798;2023-04-30T05:35:41;7.10;;;5.25;;
35126;SDS011;21300;52.006;5.798;2023-04-30T05:38:07;8.43;;;5.63;;
35126;SDS011;21300;52.006;5.798;2023-04-30T05:40:33;10.70;;;5.80;;
35126;SDS011;21300;52.006;5.798;2023-04-30T05:42:58;10.63;;;5.95;;
35126;SDS011;21300;52.006;5.798;2023-04-30T05:45:24;10.02;;;6.32;;
35126;SDS011;21300;52.006;5.798;2023-04-30T05:47:49;10.77;;;6.70;;
35126;SDS011;21300;52.006;5.798;2023-04-30T05:50:15;10.48;;;7.10;;
35126;SDS011;21300;52.006;5.798;2023-04-30T05:52:40;10.30;;;6.60;;
35126;SDS011;21300;52.006;5.798;2023-04-30T05:55:06;15.23;;;8.45;;
35126;SDS011;21300;52.006;5.798;2023-04-30T05:57:32;12.90;;;7.88;;
35126;SDS011;21300;52.006;5.798;2023-04-30T05:59:59;12.70;;;7.88;;
35126;SDS011;21300;52.006;5.798;2023-04-30T06:02:24;12.75;;;7.82;;
35126;SDS011;21300;52.006;5.798;2023-04-30T06:04:50;14.43;;;7.80;;
35126;SDS011;21300;52.006;5.798;2023-04-30T06:07:16;11.73;;;7.35;;
35126;SDS011;21300;52.006;5.798;2023-04-30T06:09:41;12.20;;;6.82;;
35126;SDS011;21300;52.006;5.798;2023-04-30T06:12:07;11.68;;;7.05;;
35126;SDS011;21300;52.006;5.798;2023-04-30T06:14:33;10.02;;;6.47;;
35126;SDS011;21300;52.006;5.798;2023-04-30T06:16:59;14.27;;;7.05;;
35126;SDS011;21300;52.006;5.798;2023-04-30T06:19:26;10.40;;;6.72;;
35126;SDS011;21300;52.006;5.798;2023-04-30T06:21:51;14.10;;;7.18;;
35126;SDS011;21300;52.006;5.798;2023-04-30T06:24:17;12.45;;;6.97;;
35126;SDS011;21300;52.006;5.798;2023-04-30T06:26:42;13.05;;;6.95;;
35126;SDS011;21300;52.006;5.798;2023-04-30T06:29:08;12.32;;;6.68;;
35126;SDS011;21300;52.006;5.798;2023-04-30T06:31:33;10.80;;;6.22;;
35126;SDS011;21300;52.006;5.798;2023-04-30T06:33:59;12.80;;;6.85;;
35126;SDS011;21300;52.006;5.798;2023-04-30T06:36:24;11.23;;;6.38;;
35126;SDS011;21300;52.006;5.798;2023-04-30T06:38:50;11.48;;;7.18;;
35126;SDS011;21300;52.006;5.798;2023-04-30T06:41:16;11.23;;;6.57;;
35126;SDS011;21300;52.006;5.798;2023-04-30T06:43:44;9.27;;;5.57;;
35126;SDS011;21300;52.006;5.798;2023-04-30T06:46:10;10.35;;;5.68;;
35126;SDS011;21300;52.006;5.798;2023-04-30T06:48:37;12.30;;;7.05;;
35126;SDS011;21300;52.006;5.798;2023-04-30T06:51:02;10.73;;;6.63;;
35126;SDS011;21300;52.006;5.798;2023-04-30T06:53:28;10.00;;;6.07;;
35126;SDS011;21300;52.006;5.798;2023-04-30T06:55:53;8.75;;;6.43;;
35126;SDS011;21300;52.006;5.798;2023-04-30T06:58:19;11.98;;;7.70;;
35126;SDS011;21300;52.006;5.798;2023-04-30T07:00:45;10.20;;;6.50;;
35126;SDS011;21300;52.006;5.798;2023-04-30T07:03:10;10.63;;;6.13;;
35126;SDS011;21300;52.006;5.798;2023-04-30T07:05:36;12.25;;;6.82;;
35126;SDS011;21300;52.006;5.798;2023-04-30T07:08:02;12.10;;;6.00;;
35126;SDS011;21300;52.006;5.798;2023-04-30T07:10:28;16.67;;;6.47;;
35126;SDS011;21300;52.006;5.798;2023-04-30T07:12:55;9.88;;;5.88;;
35126;SDS011;21300;52.006;5.798;2023-04-30T07:15:22;11.40;;;5.60;;
35126;SDS011;21300;52.006;5.798;2023-04-30T07:17:47;10.13;;;5.30;;
35126;SDS011;21300;52.006;5.798;2023-04-30T07:20:13;10.95;;;5.53;;
35126;SDS011;21300;52.006;5.798;2023-04-30T07:22:40;8.88;;;5.30;;
35126;SDS011;21300;52.006;5.798;2023-04-30T07:25:09;9.13;;;5.65;;
35126;SDS011;21300;52.006;5.798;2023-04-30T07:27:38;9.48;;;5.40;;
35126;SDS011;21300;52.006;5.798;2023-04-30T07:30:05;8.52;;;5.53;;
35126;SDS011;21300;52.006;5.798;2023-04-30T07:32:31;11.40;;;5.85;;
35126;SDS011;21300;52.006;5.798;2023-04-30T07:34:58;14.70;;;5.72;;
35126;SDS011;21300;52.006;5.798;2023-04-30T07:37:24;9.20;;;5.82;;
35126;SDS011;21300;52.006;5.798;2023-04-30T07:39:49;7.63;;;5.30;;
35126;SDS011;21300;52.006;5.798;2023-04-30T07:42:15;10.18;;;5.05;;
35126;SDS011;21300;52.006;5.798;2023-04-30T07:44:41;11.73;;;4.70;;
35126;SDS011;21300;52.006;5.798;2023-04-30T07:47:06;8.60;;;5.05;;
35126;SDS011;21300;52.006;5.798;2023-04-30T07:49:33;9.27;;;5.45;;
35126;SDS011;21300;52.006;5.798;2023-04-30T07:51:58;10.10;;;6.45;;
35126;SDS011;21300;52.006;5.798;2023-04-30T07:54:25;8.75;;;5.38;;
35126;SDS011;21300;52.006;5.798;2023-04-30T07:56:51;10.38;;;5.50;;
35126;SDS011;21300;52.006;5.798;2023-04-30T07:59:17;10.38;;;5.32;;
35126;SDS011;21300;52.006;5.798;2023-04-30T08:01:43;8.82;;;5.43;;
35126;SDS011;21300;52.006;5.798;2023-04-30T08:04:08;9.85;;;5.55;;
35126;SDS011;21300;52.006;5.798;2023-04-30T08:06:34;7.43;;;5.07;;
35126;SDS011;21300;52.006;5.798;2023-04-30T08:09:00;12.63;;;5.30;;
35126;SDS011;21300;52.006;5.798;2023-04-30T08:11:25;9.05;;;5.28;;
35126;SDS011;21300;52.006;5.798;2023-04-30T08:13:51;8.48;;;4.78;;
35126;SDS011;21300;52.006;5.798;2023-04-30T08:16:17;7.22;;;5.20;;
35126;SDS011;21300;52.006;5.798;2023-04-30T08:18:42;9.70;;;4.90;;
35126;SDS011;21300;52.006;5.798;2023-04-30T08:21:11;6.10;;;4.65;;
35126;SDS011;21300;52.006;5.798;2023-04-30T08:23:37;7.82;;;4.45;;
35126;SDS011;21300;52.006;5.798;2023-04-30T08:26:03;8.63;;;5.03;;
35126;SDS011;21300;52.006;5.798;2023-04-30T08:28:29;11.82;;;5.45;;
35126;SDS011;21300;52.006;5.798;2023-04-30T08:30:54;12.27;;;4.80;;
35126;SDS011;21300;52.006;5.798;2023-04-30T08:33:20;8.38;;;4.22;;
35126;SDS011;21300;52.006;5.798;2023-04-30T08:35:46;8.85;;;4.45;;
35126;SDS011;21300;52.006;5.798;2023-04-30T08:38:11;7.47;;;4.90;;
35126;SDS011;21300;52.006;5.798;2023-04-30T08:40:37;7.97;;;4.25;;
35126;SDS011;21300;52.006;5.798;2023-04-30T08:43:05;7.82;;;4.00;;
35126;SDS011;21300;52.006;5.798;2023-04-30T08:45:31;6.80;;;4.88;;
35126;SDS011;21300;52.006;5.798;2023-04-30T08:47:58;6.97;;;3.25;;
35126;SDS011;21300;52.006;5.798;2023-04-30T08:50:24;7.43;;;3.55;;
35126;SDS011;21300;52.006;5.798;2023-04-30T08:52:50;6.50;;;3.95;;
35126;SDS011;21300;52.006;5.798;2023-04-30T08:55:16;6.25;;;3.78;;
35126;SDS011;21300;52.006;5.798;2023-04-30T08:57:42;5.43;;;3.20;;
35126;SDS011;21300;52.006;5.798;2023-04-30T09:00:07;5.85;;;3.35;;
35126;SDS011;21300;52.006;5.798;2023-04-30T09:02:33;7.20;;;4.10;;
35126;SDS011;21300;52.006;5.798;2023-04-30T09:05:06;4.90;;;2.50;;
35126;SDS011;21300;52.006;5.798;2023-04-30T09:07:38;3.50;;;2.40;;
35126;SDS011;21300;52.006;5.798;2023-04-30T09:10:13;2.80;;;1.80;;
35126;SDS011;21300;52.006;5.798;2023-04-30T09:12:42;6.78;;;2.83;;
35126;SDS011;21300;52.006;5.798;2023-04-30T09:15:09;5.70;;;3.10;;
35126;SDS011;21300;52.006;5.798;2023-04-30T09:17:36;10.00;;;4.10;;
35126;SDS011;21300;52.006;5.798;2023-04-30T09:20:06;4.25;;;3.53;;
35126;SDS011;21300;52.006;5.798;2023-04-30T09:22:34;5.97;;;4.07;;
35126;SDS011;21300;52.006;5.798;2023-04-30T09:25:00;2.92;;;1.80;;
35126;SDS011;21300;52.006;5.798;2023-04-30T09:27:26;2.88;;;1.90;;
35126;SDS011;21300;52.006;5.798;2023-04-30T09:29:51;5.72;;;2.55;;
35126;SDS011;21300;52.006;5.798;2023-04-30T09:32:17;4.85;;;3.50;;
35126;SDS011;21300;52.006;5.798;2023-04-30T09:34:43;4.38;;;2.97;;
35126;SDS011;21300;52.006;5.798;2023-04-30T09:37:09;4.05;;;2.60;;
35126;SDS011;21300;52.006;5.798;2023-04-30T09:39:45;5.05;;;3.10;;
35126;SDS011;21300;52.006;5.798;2023-04-30T09:42:15;6.15;;;3.17;;
35126;SDS011;21300;52.006;5.798;2023-04-30T09:44:41;4.82;;;3.35;;
35126;SDS011;21300;52.006;5.798;2023-04-30T09:47:11;4.22;;;2.65;;
35126;SDS011;21300;52.006;5.798;2023-04-30T09:49:42;6.20;;;3.72;;
35126;SDS011;21300;52.006;5.798;2023-04-30T09:52:09;5.70;;;3.22;;
35126;SDS011;21300;52.006;5.798;2023-04-30T09:54:35;5.32;;;3.55;;
35126;SDS011;21300;52.006;5.798;2023-04-30T09:57:02;6.00;;;3.58;;
35126;SDS011;21300;52.006;5.798;2023-04-30T09:59:29;5.75;;;3.92;;
35126;SDS011;21300;52.006;5.798;2023-04-30T10:01:59;4.47;;;3.90;;
35126;SDS011;21300;52.006;5.798;2023-04-30T10:04:32;7.97;;;3.47;;
35126;SDS011;21300;52.006;5.798;2023-04-30T10:07:04;7.13;;;3.75;;
35126;SDS011;21300;52.006;5.798;2023-04-30T10:09:47;4.97;;;3.95;;
35126;SDS011;21300;52.006;5.798;2023-04-30T10:12:55;7.13;;;3.67;;
35126;SDS011;21300;52.006;5.798;2023-04-30T10:15:27;6.70;;;3.80;;
35126;SDS011;21300;52.006;5.798;2023-04-30T10:18:01;6.70;;;3.97;;
35126;SDS011;21300;52.006;5.798;2023-04-30T10:20:29;6.13;;;3.50;;
35126;SDS011;21300;52.006;5.798;2023-04-30T10:22:58;7.05;;;4.35;;
35126;SDS011;21300;52.006;5.798;2023-04-30T10:25:25;5.35;;;3.75;;
35126;SDS011;21300;52.006;5.798;2023-04-30T10:27:51;5.68;;;3.60;;
35126;SDS011;21300;52.006;5.798;2023-04-30T10:30:17;9.32;;;4.32;;
35126;SDS011;21300;52.006;5.798;2023-04-30T10:32:47;6.30;;;3.60;;
35126;SDS011;21300;52.006;5.798;2023-04-30T10:35:41;4.97;;;3.60;;
35126;SDS011;21300;52.006;5.798;2023-04-30T10:38:20;7.13;;;4.28;;
35126;SDS011;21300;52.006;5.798;2023-04-30T10:40:48;5.53;;;3.40;;
35126;SDS011;21300;52.006;5.798;2023-04-30T10:43:17;8.30;;;4.45;;
35126;SDS011;21300;52.006;5.798;2023-04-30T10:45:44;7.43;;;4.13;;
35126;SDS011;21300;52.006;5.798;2023-04-30T10:48:10;6.43;;;4.70;;
35126;SDS011;21300;52.006;5.798;2023-04-30T10:50:43;5.72;;;4.13;;
35126;SDS011;21300;52.006;5.798;2023-04-30T10:53:15;6.88;;;4.10;;
35126;SDS011;21300;52.006;5.798;2023-04-30T10:55:52;5.50;;;4.00;;
35126;SDS011;21300;52.006;5.798;2023-04-30T10:58:26;7.32;;;3.90;;
35126;SDS011;21300;52.006;5.798;2023-04-30T11:01:14;8.07;;;4.38;;
35126;SDS011;21300;52.006;5.798;2023-04-30T11:03:42;6.28;;;4.45;;
35126;SDS011;21300;52.006;5.798;2023-04-30T11:06:47;6.25;;;3.45;;
35126;SDS011;21300;52.006;5.798;2023-04-30T11:09:13;6.25;;;3.72;;
35126;SDS011;21300;52.006;5.798;2023-04-30T11:11:39;6.00;;;3.70;;
35126;SDS011;21300;52.006;5.798;2023-04-30T11:14:05;6.13;;;4.13;;
35126;SDS011;21300;52.006;5.798;2023-04-30T11:16:33;5.38;;;3.92;;
35126;SDS011;21300;52.006;5.798;2023-04-30T11:19:06;6.05;;;4.20;;
35126;SDS011;21300;52.006;5.798;2023-04-30T11:21:39;6.43;;;3.90;;
35126;SDS011;21300;52.006;5.798;2023-04-30T11:24:05;4.43;;;3.17;;
35126;SDS011;21300;52.006;5.798;2023-04-30T11:27:01;5.32;;;4.20;;
35126;SDS011;21300;52.006;5.798;2023-04-30T11:29:32;6.38;;;4.28;;
35126;SDS011;21300;52.006;5.798;2023-04-30T11:32:03;8.43;;;4.20;;
35126;SDS011;21300;52.006;5.798;2023-04-30T11:34:29;8.93;;;4.20;;
35126;SDS011;21300;52.006;5.798;2023-04-30T11:36:57;6.88;;;3.95;;
35126;SDS011;21300;52.006;5.798;2023-04-30T11:39:23;5.25;;;3.47;;
35126;SDS011;21300;52.006;5.798;2023-04-30T11:41:52;5.10;;;3.72;;
35126;SDS011;21300;52.006;5.798;2023-04-30T11:44:21;6.95;;;3.53;;
35126;SDS011;21300;52.006;5.798;2023-04-30T11:46:47;5.68;;;3.47;;
35126;SDS011;21300;52.006;5.798;2023-04-30T11:49:13;6.00;;;3.53;;
35126;SDS011;21300;52.006;5.798;2023-04-30T11:51:40;6.20;;;3.95;;
35126;SDS011;21300;52.006;5.798;2023-04-30T11:54:06;4.65;;;2.70;;
35126;SDS011;21300;52.006;5.798;2023-04-30T11:56:36;5.72;;;2.95;;
35126;SDS011;21300;52.006;5.798;2023-04-30T11:59:07;6.85;;;2.72;;
35126;SDS011;21300;52.006;5.798;2023-04-30T12:01:34;5.75;;;3.10;;
35126;SDS011;21300;52.006;5.798;2023-04-30T12:04:01;6.82;;;2.55;;
35126;SDS011;21300;52.006;5.798;2023-04-30T12:06:30;8.05;;;3.30;;
35126;SDS011;21300;52.006;5.798;2023-04-30T12:08:57;6.70;;;2.70;;
35126;SDS011;21300;52.006;5.798;2023-04-30T12:11:26;5.32;;;2.60;;
35126;SDS011;21300;52.006;5.798;2023-04-30T12:14:14;4.68;;;2.35;;
35126;SDS011;21300;52.006;5.798;2023-04-30T12:21:43;4.45;;;1.98;;
35126;SDS011;21300;52.006;5.798;2023-04-30T12:24:14;4.00;;;2.15;;
35126;SDS011;21300;52.006;5.798;2023-04-30T12:26:41;3.15;;;1.92;;
35126;SDS011;21300;52.006;5.798;2023-04-30T12:29:08;7.57;;;2.92;;
35126;SDS011;21300;52.006;5.798;2023-04-30T12:31:38;4.00;;;2.28;;
35126;SDS011;21300;52.006;5.798;2023-04-30T12:34:07;7.35;;;2.45;;
35126;SDS011;21300;52.006;5.798;2023-04-30T12:36:34;4.68;;;1.83;;
35126;SDS011;21300;52.006;5.798;2023-04-30T12:39:11;3.50;;;1.70;;
35126;SDS011;21300;52.006;5.798;2023-04-30T12:41:41;2.03;;;1.50;;
35126;SDS011;21300;52.006;5.798;2023-04-30T12:44:22;2.33;;;1.50;;
35126;SDS011;21300;52.006;5.798;2023-04-30T12:46:49;3.47;;;1.98;;
35126;SDS011;21300;52.006;5.798;2023-04-30T12:54:31;2.72;;;1.38;;
35126;SDS011;21300;52.006;5.798;2023-04-30T12:57:02;3.80;;;1.33;;
35126;SDS011;21300;52.006;5.798;2023-04-30T12:59:38;3.88;;;1.50;;
35126;SDS011;21300;52.006;5.798;2023-04-30T13:02:21;4.20;;;1.65;;
35126;SDS011;21300;52.006;5.798;2023-04-30T13:04:48;3.88;;;1.60;;
35126;SDS011;21300;52.006;5.798;2023-04-30T13:07:15;2.70;;;1.40;;
35126;SDS011;21300;52.006;5.798;2023-04-30T13:09:40;7.18;;;1.95;;
35126;SDS011;21300;52.006;5.798;2023-04-30T13:12:06;2.28;;;1.33;;
35126;SDS011;21300;52.006;5.798;2023-04-30T13:14:32;2.80;;;1.60;;
35126;SDS011;21300;52.006;5.798;2023-04-30T13:16:59;2.35;;;1.60;;
35126;SDS011;21300;52.006;5.798;2023-04-30T13:19:26;2.47;;;1.15;;
35126;SDS011;21300;52.006;5.798;2023-04-30T13:21:53;2.53;;;1.17;;
35126;SDS011;21300;52.006;5.798;2023-04-30T13:24:19;1.50;;;1.10;;
35126;SDS011;21300;52.006;5.798;2023-04-30T13:26:44;2.95;;;1.30;;
35126;SDS011;21300;52.006;5.798;2023-04-30T13:29:10;6.40;;;1.70;;
35126;SDS011;21300;52.006;5.798;2023-04-30T13:31:35;3.63;;;1.70;;
35126;SDS011;21300;52.006;5.798;2023-04-30T13:34:01;3.10;;;1.00;;
35126;SDS011;21300;52.006;5.798;2023-04-30T13:36:27;1.95;;;1.30;;
35126;SDS011;21300;52.006;5.798;2023-04-30T13:38:53;2.50;;;1.00;;
35126;SDS011;21300;52.006;5.798;2023-04-30T13:41:18;2.58;;;1.20;;
35126;SDS011;21300;52.006;5.798;2023-04-30T13:43:46;2.10;;;1.00;;
35126;SDS011;21300;52.006;5.798;2023-04-30T13:46:11;2.60;;;1.27;;
35126;SDS011;21300;52.006;5.798;2023-04-30T13:48:39;4.28;;;1.30;;
35126;SDS011;21300;52.006;5.798;2023-04-30T13:51:05;1.98;;;1.10;;
35126;SDS011;21300;52.006;5.798;2023-04-30T13:53:30;2.38;;;1.00;;
35126;SDS011;21300;52.006;5.798;2023-04-30T13:55:56;4.03;;;1.10;;
35126;SDS011;21300;52.006;5.798;2023-04-30T13:58:23;3.17;;;1.10;;
35126;SDS011;21300;52.006;5.798;2023-04-30T14:00:49;2.60;;;1.10;;
35126;SDS011;21300;52.006;5.798;2023-04-30T14:03:15;1.98;;;0.98;;
35126;SDS011;21300;52.006;5.798;2023-04-30T14:05:42;3.63;;;1.08;;
35126;SDS011;21300;52.006;5.798;2023-04-30T14:08:07;3.03;;;1.50;;
35126;SDS011;21300;52.006;5.798;2023-04-30T14:10:33;1.75;;;0.80;;
35126;SDS011;21300;52.006;5.798;2023-04-30T14:12:59;3.78;;;1.35;;
35126;SDS011;21300;52.006;5.798;2023-04-30T14:15:24;4.13;;;1.20;;
35126;SDS011;21300;52.006;5.798;2023-04-30T14:17:51;2.85;;;1.25;;
35126;SDS011;21300;52.006;5.798;2023-04-30T14:20:17;2.38;;;1.13;;
35126;SDS011;21300;52.006;5.798;2023-04-30T14:22:43;2.63;;;1.25;;
35126;SDS011;21300;52.006;5.798;2023-04-30T14:25:09;3.10;;;1.40;;
35126;SDS011;21300;52.006;5.798;2023-04-30T14:27:35;2.70;;;1.00;;
35126;SDS011;21300;52.006;5.798;2023-04-30T14:30:01;5.20;;;1.55;;
35126;SDS011;21300;52.006;5.798;2023-04-30T14:32:27;1.95;;;1.00;;
35126;SDS011;21300;52.006;5.798;2023-04-30T14:34:53;2.28;;;0.80;;
35126;SDS011;21300;52.006;5.798;2023-04-30T14:37:19;1.73;;;1.00;;
35126;SDS011;21300;52.006;5.798;2023-04-30T14:39:44;2.47;;;1.00;;
35126;SDS011;21300;52.006;5.798;2023-04-30T14:42:10;2.55;;;1.10;;
35126;SDS011;21300;52.006;5.798;2023-04-30T14:44:36;3.17;;;1.10;;
35126;SDS011;21300;52.006;5.798;2023-04-30T14:47:02;2.80;;;1.00;;
35126;SDS011;21300;52.006;5.798;2023-04-30T14:49:28;3.65;;;0.98;;
35126;SDS011;21300;52.006;5.798;2023-04-30T14:51:53;1.63;;;0.80;;
35126;SDS011;21300;52.006;5.798;2023-04-30T14:54:19;2.15;;;0.60;;
35126;SDS011;21300;52.006;5.798;2023-04-30T14:56:45;1.55;;;0.60;;
35126;SDS011;21300;52.006;5.798;2023-04-30T14:59:11;2.63;;;1.02;;
35126;SDS011;21300;52.006;5.798;2023-04-30T15:01:37;5.50;;;1.00;;
35126;SDS011;21300;52.006;5.798;2023-04-30T15:04:03;3.40;;;0.82;;
35126;SDS011;21300;52.006;5.798;2023-04-30T15:06:28;2.95;;;1.00;;
35126;SDS011;21300;52.006;5.798;2023-04-30T15:08:54;2.58;;;1.10;;